Date,TemperatureHighF,TemperatureAvgF,TemperatureLowF,DewpointHighF,DewpointAvgF,DewpointLowF,HumidityHigh,HumidityAvg,HumidityLow,PressureMaxIn,PressureMinIn,WindSpeedMaxMPH,WindSpeedAvgMPH,GustSpeedMaxMPH,PrecipitationSumIn
2012-6-13,52.0,48.2,44.0,41.0,38.1,37.0,77,68,63,0.00,40.00,4,1,5,0.00
2012-6-14,53.0,46.5,43.0,41.0,38.4,36.0,81,73,63,0.00,40.00,8,2,12,0.00
2012-6-15,52.0,46.8,44.0,40.0,37.9,36.0,81,71,64,0.00,40.00,6,2,10,0.00
2012-6-16,55.0,48.3,44.0,41.0,34.1,-99.9,77,61,44,0.00,40.00,6,2,9,0.00
2012-6-17,60.0,53.4,47.0,43.0,39.0,35.0,74,59,47,0.00,40.00,5,2,8,0.00
2012-6-18,60.0,53.2,49.0,47.0,43.7,40.0,87,71,53,0.00,40.00,5,1,9,0.00
2012-6-19,54.0,50.2,46.0,47.0,45.1,42.0,91,83,74,0.00,40.00,6,2,10,0.00
2012-6-20,54.0,49.1,45.0,47.0,45.7,43.0,98,88,70,0.00,40.00,5,1,9,0.00
2012-6-21,63.0,53.6,46.0,49.0,46.5,44.0,94,78,57,0.00,40.00,7,2,10,0.00
2012-6-22,65.0,56.8,49.0,51.0,47.9,44.0,89,73,57,0.00,40.00,6,1,7,0.00
2012-6-23,69.0,58.6,49.0,51.0,47.7,45.0,90,69,47,0.00,40.00,6,1,6,0.00
2012-6-24,49.0,47.6,46.0,48.0,46.2,45.0,97,95,87,0.00,40.00,6,1,10,0.00
2012-6-25,49.0,46.5,45.0,48.0,45.7,43.0,98,97,95,0.00,40.00,6,1,10,0.00
2012-6-26,51.0,47.6,45.0,45.0,43.1,39.0,95,85,77,0.00,40.00,6,1,9,0.00
2012-6-27,55.0,49.0,46.0,46.0,44.3,42.0,97,84,68,0.00,40.00,11,3,15,0.00
2012-6-28,49.0,46.4,44.0,48.0,45.4,44.0,98,96,91,0.00,40.00,3,0,4,0.00
2012-6-29,64.0,54.4,45.0,45.0,40.7,38.0,95,62,41,0.00,40.00,5,1,9,0.00
2012-6-30,56.0,51.4,47.0,46.0,43.8,38.0,89,76,61,0.00,40.00,7,3,11,0.00
2012-7-1,58.0,51.6,46.0,46.0,44.4,42.0,95,78,59,0.00,40.00,7,2,12,0.00
2012-7-2,58.0,52.4,48.0,49.0,45.0,41.0,90,76,64,0.00,40.00,9,2,12,0.00
2012-7-3,48.0,46.2,44.0,47.0,44.2,42.0,97,92,87,0.00,40.00,14,4,24,0.00
2012-7-4,47.0,44.9,42.0,45.0,43.3,41.0,97,95,83,0.00,40.00,21,5,36,0.00
2012-7-5,47.0,45.4,44.0,42.0,40.6,39.0,89,83,77,0.00,40.00,10,0,29,0.00
2012-7-6,52.0,47.8,43.0,48.0,42.9,38.0,94,83,71,0.00,40.00,4,0,8,0.00
2012-7-7,52.0,48.3,45.0,49.0,43.9,40.0,95,85,71,0.00,40.00,13,3,27,0.00
2012-7-8,54.0,46.7,44.0,43.0,40.8,39.0,93,80,64,0.00,40.00,9,5,19,0.00
2012-7-9,56.0,47.4,44.0,46.0,42.4,40.0,94,83,55,0.00,40.00,12,2,17,0.00
2012-7-10,54.0,47.7,43.0,46.0,43.5,40.0,97,86,63,0.00,40.00,15,4,22,0.00
2012-7-11,47.0,46.3,45.0,45.0,42.6,40.0,96,87,81,0.00,40.00,19,5,44,0.00
2012-7-12,49.0,47.1,45.0,44.0,42.2,40.0,93,83,75,0.00,40.00,0,0,0,0.00
2012-7-13,54.0,48.6,45.0,48.0,45.3,42.0,97,89,73,0.00,40.00,2,0,5,0.00
2012-7-14,51.0,47.6,46.0,48.0,46.2,44.0,97,95,88,0.00,40.00,12,2,19,0.00
2012-7-15,49.0,46.4,44.0,46.0,44.7,43.0,97,94,86,0.00,40.00,5,1,11,0.00
2012-7-16,62.0,53.5,46.0,47.0,43.8,39.0,94,71,55,0.00,40.00,4,2,9,0.00
2012-7-17,65.0,58.4,52.0,45.0,41.8,39.0,68,54,47,0.00,40.00,5,2,8,0.00
2012-7-18,59.0,53.6,49.0,49.0,45.6,40.0,84,74,68,0.00,40.00,9,3,13,0.00
2012-7-19,67.0,59.2,51.0,55.0,46.7,39.0,85,65,40,0.00,40.00,4,1,7,0.00
2012-7-20,59.0,53.1,49.0,51.0,46.9,40.0,95,81,54,0.00,40.00,7,2,10,0.00
2012-7-21,51.0,49.1,48.0,49.0,48.1,47.0,98,97,95,0.00,40.00,8,3,11,1.51
2012-7-22,51.0,49.2,47.0,50.0,48.3,46.0,98,97,94,0.00,40.00,6,1,9,1.67
2012-7-23,49.0,47.6,46.0,48.0,46.9,45.0,98,97,96,0.00,40.00,0,0,0,0.26
2012-7-24,59.0,51.0,47.0,50.0,47.3,46.0,98,88,68,0.00,40.00,5,1,9,0.09
2012-7-25,64.0,54.7,48.0,53.0,48.4,46.0,99,80,66,0.00,40.00,3,1,8,0.01
2012-7-26,61.0,51.9,44.0,53.0,49.2,44.0,100,91,73,0.00,40.00,4,2,8,0.00
2012-7-27,67.0,56.5,47.0,54.0,50.2,47.0,100,81,60,0.00,40.00,4,2,7,0.00
2012-7-28,57.0,51.8,49.0,52.0,49.9,47.0,100,94,73,0.00,40.00,8,3,17,0.12
2012-7-29,52.0,49.5,47.0,52.0,49.1,47.0,100,98,91,0.00,40.00,7,3,9,0.28
2012-7-30,50.0,48.9,47.0,49.0,48.0,46.0,100,97,90,0.00,40.00,11,6,22,1.60
2012-7-31,61.0,53.3,48.0,50.0,46.1,43.0,90,76,65,0.00,40.00,6,3,10,0.03
2012-8-1,51.0,49.6,49.0,50.0,48.8,46.0,100,97,84,0.00,40.00,11,6,25,1.59
2012-8-2,53.0,50.6,48.0,51.0,49.2,47.0,100,95,86,0.00,40.00,5,3,13,1.07
2012-8-3,57.0,52.3,47.0,51.0,46.9,43.0,99,82,72,0.00,40.00,7,3,10,0.02
2012-8-4,50.0,48.2,46.0,49.0,46.2,43.0,100,93,79,0.00,40.00,6,3,14,0.88
2012-8-5,54.0,49.0,45.0,48.0,44.7,41.0,97,86,63,0.00,40.00,5,2,13,0.39
2012-8-6,58.0,52.8,49.0,51.0,44.8,40.0,100,76,57,0.00,40.00,12,6,18,0.20
2012-8-7,60.0,51.9,49.0,49.0,46.7,43.0,94,83,67,0.00,40.00,5,2,9,0.07
2012-8-8,62.0,53.6,49.0,48.0,45.2,42.0,89,74,56,0.00,40.00,6,3,9,0.01
2012-8-9,57.0,53.7,52.0,54.0,49.3,45.0,99,85,74,0.00,40.00,7,3,10,0.04
2012-8-10,58.0,52.3,49.0,51.0,49.1,46.0,100,89,78,0.00,40.00,5,2,8,0.02
2012-8-11,65.0,56.5,51.0,49.0,45.4,42.0,84,67,54,0.00,40.00,6,2,8,0.02
2012-8-12,62.0,56.3,51.0,50.0,45.3,42.0,77,67,57,0.00,40.00,6,2,8,0.00
2012-8-13,61.0,56.2,52.0,52.0,48.8,45.0,92,76,68,0.00,40.00,5,3,9,0.00
2012-8-14,63.0,52.7,50.0,53.0,50.1,46.0,100,91,69,0.00,40.00,6,3,11,0.00
2012-8-15,53.0,51.2,49.0,52.0,50.7,48.0,100,98,93,0.00,40.00,6,2,10,0.40
2012-8-16,52.0,49.6,48.0,51.0,49.0,47.0,100,98,93,0.00,40.00,7,3,10,0.42
2012-8-17,60.0,52.1,47.0,50.0,47.6,42.0,100,86,65,0.00,40.00,6,3,9,0.25
2012-8-18,56.0,50.6,47.0,49.0,45.1,41.0,100,82,65,0.00,40.00,12,5,19,0.61
2012-8-19,51.0,48.9,47.0,51.0,48.7,47.0,100,100,97,0.00,40.00,8,4,21,1.23
2012-8-20,56.0,50.8,48.0,53.0,50.3,48.0,100,98,90,0.00,40.00,13,3,16,1.25
2012-8-21,63.0,55.4,48.0,48.0,45.0,40.0,94,70,49,0.00,40.00,6,3,13,0.01
2012-8-22,63.0,56.4,50.0,49.0,43.2,36.0,96,63,49,0.00,40.00,11,4,15,0.00
2012-8-23,57.0,52.1,47.0,48.0,44.9,41.0,97,78,58,0.00,40.00,14,7,22,1.11
2012-8-24,58.0,54.0,50.0,48.0,44.4,40.0,94,71,58,0.00,40.00,10,4,16,0.01
2012-8-25,59.0,53.1,49.0,51.0,48.7,45.0,100,86,72,0.00,40.00,5,2,8,0.00
2012-8-26,51.0,49.3,48.0,50.0,48.3,46.0,100,96,86,0.00,40.00,4,2,8,0.17
2012-8-27,63.0,54.7,49.0,52.0,44.3,27.0,99,73,30,0.00,40.00,40,13,62,0.11
2012-8-28,64.0,58.5,55.0,34.0,30.0,26.0,42,34,29,0.00,40.00,45,29,75,0.00
2012-8-29,64.0,58.1,54.0,42.0,34.7,27.0,59,42,34,0.00,40.00,5,3,10,0.00
2012-8-30,54.0,49.8,47.0,48.0,42.5,34.0,99,78,50,0.00,40.00,11,4,18,1.34
2012-8-31,51.0,48.6,47.0,51.0,48.3,46.0,100,99,95,0.00,40.00,8,5,13,1.45
2012-9-1,57.0,51.0,48.0,49.0,47.8,44.0,100,90,70,0.00,40.00,8,3,13,0.55
2012-9-2,49.0,47.4,45.0,48.0,45.1,43.0,100,92,83,0.00,40.00,13,4,26,1.28
2012-9-3,51.0,49.2,47.0,51.0,48.8,45.0,100,99,94,0.00,40.00,20,9,36,2.13
2012-9-4,50.0,47.5,46.0,48.0,45.0,42.0,99,91,85,0.00,40.00,23,8,45,2.04
2012-9-5,50.0,48.6,47.0,50.0,46.9,42.0,100,94,81,0.00,40.00,26,13,39,2.53
2012-9-6,55.0,49.6,45.0,43.0,39.0,34.0,85,68,50,0.00,40.00,6,4,9,0.01
2012-9-7,47.0,44.3,42.0,43.0,39.4,35.0,94,83,62,0.00,40.00,8,4,15,0.21
2012-9-8,54.0,46.3,41.0,41.0,36.2,27.0,95,71,36,0.00,40.00,39,10,61,0.37
2012-9-9,56.0,52.3,49.0,31.0,25.6,22.0,46,35,30,0.00,40.00,60,45,89,0.01
2012-9-10,60.0,53.5,48.0,34.0,26.9,20.0,58,36,28,0.00,40.00,34,10,56,0.00
2012-9-11,48.0,45.7,43.0,43.0,39.0,30.0,94,78,50,0.00,40.00,8,4,15,0.74
2012-9-12,52.0,47.1,45.0,46.0,41.6,39.0,92,81,73,0.00,40.00,11,4,18,0.56
2012-9-13,55.0,49.2,45.0,44.0,39.7,36.0,79,70,58,0.00,40.00,5,2,7,0.01
2012-9-14,48.0,45.7,45.0,45.0,41.8,37.0,100,87,68,0.00,40.00,7,3,11,0.76
2012-9-15,49.0,47.3,45.0,49.0,47.1,45.0,100,99,95,0.00,40.00,24,14,46,3.33
2012-9-16,51.0,48.3,46.0,50.0,46.6,39.0,100,94,70,0.00,40.00,36,19,53,5.48
2012-9-17,50.0,46.4,43.0,45.0,42.2,40.0,97,85,72,0.00,40.00,15,9,26,0.37
2012-9-18,48.0,46.0,44.0,47.0,44.6,42.0,97,95,91,0.00,40.00,24,12,39,4.67
2012-9-19,51.0,49.4,45.0,51.0,48.5,43.0,100,97,90,0.00,40.00,21,10,44,10.44
2012-9-20,51.0,49.7,48.0,51.0,49.7,48.0,100,100,100,0.00,40.00,10,4,21,3.16
2012-9-21,55.0,49.2,46.0,54.0,48.8,46.0,100,98,92,0.00,40.00,32,7,50,2.42
2012-9-22,54.0,50.3,49.0,53.0,48.3,-99.9,100,97,91,0.00,40.00,32,16,60,6.11
2012-9-23,50.0,48.2,46.0,49.0,47.5,46.0,100,98,93,0.00,40.00,20,8,44,3.19
2012-9-24,49.0,45.7,42.0,48.0,44.3,39.0,100,95,84,0.00,40.00,15,5,26,0.44
2012-9-25,45.0,43.7,43.0,44.0,41.0,40.0,98,90,83,0.00,40.00,20,10,43,3.85
2012-9-26,46.0,43.6,39.0,43.0,39.9,37.0,94,87,80,0.00,40.00,23,14,51,1.75
2012-9-27,47.0,43.8,42.0,40.0,38.1,36.0,89,80,64,0.00,40.00,13,9,30,2.18
2012-9-28,47.0,42.7,37.0,41.0,38.2,35.0,94,85,67,0.00,40.00,10,4,20,0.40
2012-9-29,44.0,38.1,36.0,36.0,30.5,26.0,93,74,60,0.00,40.00,9,4,16,0.14
2012-9-30,46.0,40.8,37.0,35.0,26.9,20.0,75,58,46,0.00,40.00,8,4,12,0.01
2012-10-1,48.0,41.0,37.0,30.0,26.8,24.0,69,58,45,0.00,40.00,5,2,7,0.00
2012-10-2,43.0,41.0,38.0,42.0,39.3,27.0,100,94,53,0.00,40.00,12,6,28,1.25
2012-10-3,46.0,43.6,40.0,44.0,41.6,38.0,100,93,80,0.00,40.00,10,6,18,1.24
2012-10-4,48.0,46.7,45.0,48.0,46.5,44.0,100,99,94,0.00,40.00,11,6,17,1.61
2012-10-5,47.0,45.7,45.0,47.0,45.7,45.0,100,100,100,0.00,40.00,13,5,19,1.31
2012-10-6,50.0,46.3,45.0,50.0,46.0,44.0,100,99,94,0.00,40.00,6,2,9,0.90
2012-10-7,48.0,45.7,43.0,48.0,45.3,38.0,100,98,77,0.00,40.00,5,2,9,0.24
2012-10-8,53.0,46.4,43.0,49.0,45.7,43.0,100,97,81,0.00,40.00,4,1,6,0.04
2012-10-9,51.0,43.9,40.0,46.0,42.6,40.0,100,95,82,0.00,40.00,3,1,5,0.01
2012-10-10,42.0,39.7,36.0,42.0,39.5,36.0,100,100,98,0.00,40.00,4,2,6,0.02
2012-10-11,50.0,43.2,37.0,40.0,35.9,31.0,100,77,51,0.00,40.00,6,3,13,0.01
2012-10-12,45.0,42.5,39.0,34.0,31.1,28.0,73,64,55,0.00,40.00,6,3,9,0.00
2012-10-13,44.0,40.1,38.0,41.0,34.9,31.0,97,82,68,0.00,40.00,6,3,10,0.10
2012-10-14,45.0,42.5,36.0,41.0,39.5,35.0,99,90,82,0.00,40.00,16,5,25,0.79
2012-10-15,43.0,37.2,35.0,37.0,33.3,29.0,97,85,69,0.00,40.00,13,4,25,0.39
2012-10-16,39.0,34.7,30.0,31.0,27.6,22.0,98,76,54,0.00,40.00,14,7,25,0.01
2012-10-17,40.0,34.6,31.0,28.0,18.8,14.0,91,53,39,0.00,40.00,35,12,52,0.06
2012-10-18,39.0,35.2,33.0,17.0,13.0,11.0,46,39,32,0.00,40.00,33,13,55,0.06
2012-10-19,39.0,35.6,33.0,14.0,9.8,8.0,43,34,27,0.00,40.00,35,18,47,0.00
2012-10-20,40.0,36.9,35.0,11.0,8.1,3.0,32,29,23,0.00,40.00,36,19,50,0.00
2012-10-21,40.0,35.1,32.0,21.0,10.7,1.0,58,36,22,0.00,40.00,13,4,41,0.00
2012-10-22,39.0,32.8,30.0,13.0,9.8,4.0,47,38,30,0.00,40.00,6,3,9,0.00
2012-10-23,40.0,32.9,29.0,16.0,9.9,6.0,49,38,31,0.00,40.00,2,1,6,0.00
2012-10-24,42.0,34.4,31.0,14.0,9.5,5.0,45,35,27,0.00,40.00,4,1,7,0.00
2012-10-25,41.0,36.9,34.0,23.0,16.8,8.0,53,44,30,0.00,40.00,6,2,10,0.00
2012-10-26,41.0,35.1,33.0,18.0,14.9,13.0,51,43,35,0.00,40.00,5,2,7,0.00
2012-10-27,40.0,33.7,30.0,16.0,13.3,9.0,51,43,33,0.00,40.00,4,2,5,0.00
2012-10-28,44.0,36.1,33.0,22.0,14.4,11.0,53,41,31,0.00,40.00,3,2,6,0.00
2012-10-29,38.0,35.8,35.0,26.0,21.6,14.0,65,56,38,0.00,40.00,25,3,33,0.00
2012-10-30,36.0,31.4,29.0,13.0,6.8,3.0,41,35,30,0.00,40.00,47,31,71,0.00
2012-10-31,32.0,28.0,26.0,17.0,8.4,3.0,58,43,32,0.00,40.00,32,14,55,0.00
2012-11-1,38.0,33.6,29.0,27.0,20.1,16.0,89,59,41,0.00,40.00,15,9,24,0.00
2012-11-2,42.0,38.8,35.0,35.0,27.4,12.0,92,66,32,0.00,40.00,17,10,29,0.43
2012-11-3,42.0,40.1,37.0,33.0,29.8,27.0,81,67,56,0.00,40.00,14,8,29,0.18
2012-11-4,47.0,40.8,38.0,32.0,26.5,15.0,78,57,34,0.00,40.00,10,4,12,0.01
2012-11-5,40.0,34.3,32.0,32.0,27.6,13.0,99,79,33,0.00,40.00,7,2,19,0.00
2012-11-6,40.0,34.0,32.0,35.0,29.8,0.0,100,89,18,0.00,40.00,42,5,72,0.17
2012-11-7,39.0,34.7,32.0,20.0,14.0,-1.0,57,44,21,0.00,40.00,27,6,47,0.02
2012-11-8,36.0,33.4,32.0,33.0,26.4,13.0,96,76,45,0.00,40.00,8,3,12,0.03
2012-11-9,38.0,35.7,33.0,36.0,34.2,33.0,99,95,91,0.00,40.00,9,5,14,0.74
2012-11-10,43.0,40.4,37.0,35.0,31.0,28.0,93,69,56,0.00,40.00,12,7,19,0.30
2012-11-11,43.0,41.5,39.0,30.0,28.2,27.0,67,59,53,0.00,40.00,7,3,14,0.01
2012-11-12,47.0,41.7,39.0,29.0,26.9,22.0,66,56,44,0.00,40.00,25,7,41,0.00
2012-11-13,40.0,36.2,32.0,33.0,26.8,20.0,99,71,47,0.00,40.00,7,3,11,0.05
2012-11-14,36.0,33.4,32.0,34.0,31.5,-99.9,100,95,85,0.00,40.00,11,4,17,0.85
2012-11-15,39.0,35.3,33.0,34.0,30.5,27.0,93,83,64,0.00,40.00,7,3,13,0.16
2012-11-16,42.0,37.4,29.0,27.0,14.4,-3.0,64,40,20,0.00,40.00,38,18,58,0.01
2012-11-17,31.0,26.9,24.0,27.0,9.1,-3.0,97,49,23,0.00,40.00,7,3,16,0.00
2012-11-18,36.0,32.4,28.0,31.0,27.6,20.0,99,84,54,0.00,40.00,15,6,21,0.03
2012-11-19,40.0,34.2,29.0,25.0,21.8,18.0,83,61,46,0.00,40.00,12,5,19,0.04
2012-11-20,34.0,29.7,28.0,30.0,24.2,21.0,93,80,63,0.00,40.00,4,2,6,0.01
2012-11-21,33.0,30.0,28.0,29.0,27.2,22.0,98,90,64,0.00,40.00,6,2,9,0.01
2012-11-22,42.0,37.1,31.0,28.0,19.0,5.0,88,50,21,0.00,40.00,15,8,22,0.01
2012-11-23,41.0,36.6,34.0,30.0,25.6,20.0,74,65,55,0.00,40.00,6,3,10,0.00
2012-11-24,37.0,33.3,30.0,30.0,27.1,24.0,99,78,59,0.00,40.00,5,2,7,0.00
2012-11-25,36.0,31.8,30.0,31.0,27.9,22.0,99,86,67,0.00,40.00,7,2,9,0.03
2012-11-26,36.0,32.5,30.0,27.0,21.5,14.0,86,64,40,0.00,40.00,4,2,9,0.03
2012-11-27,36.0,34.1,32.0,27.0,20.9,14.0,80,59,40,0.00,40.00,9,2,12,0.00
2012-11-28,40.0,34.9,29.0,25.0,18.0,10.0,75,51,31,0.00,40.00,5,2,7,0.00
2012-11-29,32.0,27.6,26.0,23.0,11.0,1.0,80,50,33,0.00,40.00,5,2,10,0.00
2012-11-30,35.0,27.8,26.0,15.0,2.8,-12.0,59,35,12,0.00,40.00,39,6,53,0.01
2012-12-1,35.0,30.4,28.0,13.0,2.5,-15.0,51,33,12,0.00,40.00,44,11,67,0.01
2012-12-2,31.0,27.1,22.0,-3.0,-7.1,-12.0,31,22,14,0.00,40.00,28,17,46,0.00
2012-12-3,26.0,22.6,21.0,17.0,4.5,-4.0,83,48,30,0.00,40.00,11,4,16,0.00
2012-12-4,28.0,23.7,21.0,15.0,3.1,-2.0,67,41,29,0.00,40.00,9,3,15,0.00
2012-12-5,31.0,26.2,22.0,17.0,11.3,1.0,83,55,31,0.00,40.00,11,4,14,0.00
2012-12-6,36.0,29.9,28.0,23.0,12.3,-99.9,75,55,48,0.00,40.00,10,5,14,0.00
2012-12-7,33.0,28.3,27.0,27.0,18.3,11.0,97,68,45,0.00,40.00,7,3,10,0.00
2012-12-8,32.0,29.8,27.0,32.0,28.4,25.0,100,94,77,0.00,40.00,7,4,15,0.00
2012-12-9,35.0,32.8,32.0,35.0,32.8,32.0,100,100,100,0.00,40.00,3,1,8,0.30
2012-12-10,35.0,34.1,33.0,32.0,27.1,20.0,99,77,55,0.00,40.00,10,4,10,0.33
2012-12-11,38.0,35.0,31.0,26.0,19.9,17.0,79,54,42,0.00,40.00,10,4,21,0.01
2012-12-12,37.0,32.6,30.0,32.0,28.8,19.0,100,88,48,0.00,40.00,29,5,54,0.01
2012-12-13,38.0,35.2,31.0,27.0,19.6,15.0,73,53,45,0.00,40.00,29,10,49,0.03
2012-12-14,33.0,30.8,29.0,16.0,12.1,6.0,54,46,33,0.00,40.00,27,7,50,0.01
2012-12-15,32.0,25.9,18.0,8.0,0.5,-8.0,38,33,24,0.00,40.00,52,35,71,0.00
2012-12-16,24.0,20.3,19.0,-2.0,-7.6,-20.0,35,28,14,0.00,40.00,63,46,100,0.00
2012-12-17,29.0,24.0,20.0,4.0,-14.1,-23.0,43,18,9,0.00,40.00,64,29,93,0.00
2012-12-18,30.0,25.3,23.0,19.0,8.5,1.0,66,48,34,0.00,40.00,17,6,24,0.00
2012-12-19,30.0,25.7,19.0,21.0,2.6,-10.0,74,39,19,0.00,40.00,64,33,87,0.00
2012-12-20,27.0,21.9,19.0,-1.0,-5.2,-8.0,37,30,24,0.00,40.00,64,29,87,0.00
2012-12-21,25.0,22.2,21.0,9.0,4.7,-8.0,56,47,25,0.00,40.00,5,2,9,0.00
2012-12-22,28.0,23.3,20.0,23.0,11.3,-11.0,96,65,23,0.00,40.00,7,4,17,0.00
2012-12-23,32.0,28.8,25.0,25.0,18.4,6.0,96,67,36,0.00,40.00,13,9,33,0.00
2012-12-24,35.0,31.3,26.0,34.0,30.0,25.0,99,95,85,0.00,40.00,32,17,62,0.74
2012-12-25,35.0,32.4,31.0,33.0,32.0,31.0,100,98,91,0.00,40.00,22,7,62,1.04
2012-12-26,39.0,35.1,31.0,35.0,33.6,31.0,100,95,83,0.00,40.00,30,12,51,1.34
2012-12-27,38.0,35.5,32.0,34.0,32.4,30.0,99,88,71,0.00,40.00,17,7,41,1.23
2012-12-28,38.0,36.0,35.0,36.0,34.9,33.0,100,95,82,0.00,40.00,27,6,44,0.79
2012-12-29,41.0,38.1,36.0,38.0,34.0,27.0,99,85,58,0.00,40.00,33,14,63,1.37
2012-12-30,69.0,39.8,35.0,67.0,37.7,34.0,98,92,83,0.00,40.00,41,22,79,2.77
2012-12-31,52.0,42.8,39.0,47.0,39.6,37.0,98,90,71,0.00,40.00,37,12,82,0.70
2013-1-1,44.0,39.4,36.0,41.0,37.7,36.0,99,93,79,0.00,40.00,25,10,53,1.19